Time;durP1;ratioP1;P1;durP2;ratioP2;P2;SDS_P1;SDS_P2;PMS_P1;PMS_P2;Temp;Humidity;BMP_temperature;BMP_pressure;BME280_temperature;BME280_humidity;BME280_pressure;Samples;Min_cycle;Max_cycle;Signal;HPM_P1;HPM_P2
2022/11/04 00:01:17;;;;;;;3.43;1.40;;;10.00;99.90;;;;;;4953857;29;20919;-84
2022/11/04 00:03:42;;;;;;;3.20;1.33;;;10.00;99.90;;;;;;4954283;29;20179;-84
2022/11/04 00:06:08;;;;;;;4.13;1.83;;;10.00;99.90;;;;;;4954261;29;20232;-84
2022/11/04 00:08:34;;;;;;;2.10;1.07;;;9.90;99.90;;;;;;4954048;29;20174;-84
2022/11/04 00:13:45;;;;;;;5.33;2.00;;;9.90;99.90;;;;;;4954078;29;20460;-84
2022/11/04 00:18:55;;;;;;;4.30;1.33;;;9.90;99.90;;;;;;4954323;29;20903;-84
2022/11/04 00:29:33;;;;;;;4.73;1.77;;;10.00;99.90;;;;;;4954221;29;20422;-84
2022/11/04 00:34:43;;;;;;;3.60;2.00;;;9.90;99.90;;;;;;4953970;29;20193;-84
2022/11/04 00:37:08;;;;;;;3.90;1.80;;;10.00;99.90;;;;;;4953923;29;20419;-85
2022/11/04 00:39:34;;;;;;;5.37;1.83;;;10.00;99.90;;;;;;4953390;29;20583;-84
2022/11/04 00:41:59;;;;;;;4.10;1.60;;;10.10;99.90;;;;;;4959533;28;20209;-84
2022/11/04 00:44:25;;;;;;;5.50;2.10;;;10.00;99.90;;;;;;4959947;28;20170;-84
2022/11/04 00:46:50;;;;;;;3.93;1.73;;;10.00;99.90;;;;;;4959941;28;20887;-83
2022/11/04 00:49:15;;;;;;;3.63;1.60;;;10.00;99.90;;;;;;4959993;28;20181;-84
2022/11/04 00:51:41;;;;;;;5.00;2.10;;;9.90;99.90;;;;;;4959590;29;20209;-84
2022/11/04 00:54:06;;;;;;;3.63;2.13;;;10.00;99.90;;;;;;4960044;28;20166;-83
2022/11/04 00:56:39;;;;;;;5.40;2.40;;;10.00;99.90;;;;;;4959601;28;20179;-83
2022/11/04 00:59:05;;;;;;;4.07;2.23;;;10.00;99.90;;;;;;4959961;28;20195;-83
2022/11/04 01:01:30;;;;;;;4.77;1.30;;;10.10;99.90;;;;;;4959477;28;20543;-83
2022/11/04 01:03:56;;;;;;;2.87;1.73;;;10.00;99.90;;;;;;4959928;28;20439;-83
2022/11/04 01:06:23;;;;;;;5.27;2.27;;;10.00;99.90;;;;;;4959920;28;20184;-84
2022/11/04 01:08:54;;;;;;;6.83;2.30;;;10.10;99.90;;;;;;4959961;28;20309;-84
2022/11/04 01:11:19;;;;;;;4.57;1.70;;;10.00;99.90;;;;;;4959484;28;20857;-83
2022/11/04 01:13:44;;;;;;;3.63;2.10;;;10.10;99.90;;;;;;4959981;28;20440;-84
2022/11/04 01:16:11;;;;;;;5.00;2.20;;;10.10;99.90;;;;;;4960072;28;20236;-83
2022/11/04 01:18:38;;;;;;;9.23;2.00;;;10.10;99.90;;;;;;4959836;28;20167;-83
2022/11/04 01:21:05;;;;;;;5.60;2.10;;;10.10;99.90;;;;;;4959507;28;20418;-83
2022/11/04 01:23:32;;;;;;;5.57;3.20;;;10.10;99.90;;;;;;4959404;28;20482;-85
2022/11/04 01:25:58;;;;;;;3.33;2.33;;;10.10;99.90;;;;;;4959239;29;20418;-84
2022/11/04 01:28:23;;;;;;;7.67;1.80;;;10.10;99.90;;;;;;4959720;28;20431;-84
2022/11/04 01:30:49;;;;;;;4.20;1.20;;;10.10;99.90;;;;;;4959647;28;20257;-84
2022/11/04 01:33:14;;;;;;;3.83;2.20;;;10.10;99.90;;;;;;4959711;28;20206;-83
2022/11/04 01:35:40;;;;;;;4.87;2.57;;;10.10;99.90;;;;;;4959643;28;20187;-84
2022/11/04 01:38:05;;;;;;;6.23;2.33;;;10.10;99.90;;;;;;4959466;28;20274;-85
2022/11/04 01:40:36;;;;;;;2.67;1.97;;;10.10;99.90;;;;;;4959156;28;20188;-83
2022/11/04 01:43:01;;;;;;;3.20;2.17;;;10.10;99.90;;;;;;4957402;29;20721;-83
2022/11/04 01:45:27;;;;;;;3.27;2.00;;;10.20;99.90;;;;;;4959088;28;20427;-85
2022/11/04 01:48:08;;;;;;;3.93;1.90;;;10.20;99.90;;;;;;4959719;28;20696;-83
2022/11/04 01:50:36;;;;;;;3.97;2.60;;;10.20;99.90;;;;;;4958280;28;20265;-83
2022/11/04 01:53:08;;;;;;;2.87;1.20;;;10.30;99.90;;;;;;4963161;28;20424;-84
2022/11/04 01:55:48;;;;;;;7.67;2.90;;;10.30;99.90;;;;;;4955879;29;20466;-84
2022/11/04 01:58:17;;;;;;;5.87;2.00;;;10.30;99.90;;;;;;4956198;29;20411;-84
2022/11/04 02:00:43;;;;;;;6.10;1.80;;;10.40;99.90;;;;;;4956287;29;20420;-84
2022/11/04 02:03:14;;;;;;;4.90;2.23;;;10.50;99.90;;;;;;4955828;29;20855;-83
2022/11/04 02:05:41;;;;;;;5.33;2.60;;;10.60;99.90;;;;;;4956169;29;20412;-84
2022/11/04 02:08:08;;;;;;;4.50;2.17;;;10.50;99.90;;;;;;4955981;29;20435;-84
2022/11/04 02:10:34;;;;;;;3.73;1.53;;;10.50;99.90;;;;;;4955299;28;20431;-85
2022/11/04 02:13:03;;;;;;;3.23;1.40;;;10.50;99.90;;;;;;4956048;28;20857;-82
2022/11/04 02:15:51;;;;;;;4.77;2.13;;;10.50;99.90;;;;;;4955830;28;20750;-84
2022/11/04 02:18:41;;;;;;;7.57;2.57;;;10.50;99.90;;;;;;4955787;28;20435;-85
2022/11/04 02:21:10;;;;;;;3.50;1.80;;;10.60;99.90;;;;;;4955746;29;20954;-84
2022/11/04 02:23:57;;;;;;;3.07;1.80;;;10.50;99.90;;;;;;4955595;29;20469;-84
2022/11/04 02:26:40;;;;;;;3.60;2.00;;;10.50;99.90;;;;;;4955408;29;20408;-83
2022/11/04 02:29:25;;;;;;;4.63;1.80;;;10.50;99.90;;;;;;4955592;28;20420;-83
2022/11/04 02:31:50;;;;;;;3.80;2.20;;;10.50;99.90;;;;;;4955600;29;20954;-85
2022/11/04 02:34:30;;;;;;;2.97;2.20;;;10.50;99.90;;;;;;4955713;29;20494;-84
2022/11/04 02:37:12;;;;;;;4.70;2.60;;;10.50;99.90;;;;;;4955587;29;20184;-83
2022/11/04 02:40:04;;;;;;;3.20;1.30;;;10.50;99.90;;;;;;4955292;29;20418;-83
2022/11/04 02:42:59;;;;;;;5.20;1.80;;;10.50;99.90;;;;;;4955321;29;20481;-84
2022/11/04 02:45:30;;;;;;;4.07;1.50;;;10.50;99.90;;;;;;4955343;29;20477;-84
2022/11/04 02:48:23;;;;;;;3.50;1.83;;;10.50;99.90;;;;;;4955431;29;20422;-85
2022/11/04 02:51:24;;;;;;;4.17;1.40;;;10.50;99.90;;;;;;4945206;29;20422;-83
2022/11/04 02:53:59;;;;;;;8.40;1.53;;;10.60;99.90;;;;;;4955222;29;20425;-83
2022/11/04 02:56:26;;;;;;;3.90;1.93;;;10.50;99.90;;;;;;4954640;29;20416;-83
2022/11/04 02:58:59;;;;;;;3.33;1.50;;;10.60;99.90;;;;;;4955038;29;20819;-83
2022/11/04 03:01:31;;;;;;;1.83;1.20;;;10.50;99.90;;;;;;4954740;29;20453;-84
2022/11/04 03:04:01;;;;;;;3.70;1.60;;;10.60;99.90;;;;;;4954458;28;20418;-84
2022/11/04 03:06:28;;;;;;;4.47;1.33;;;10.60;99.90;;;;;;4954794;29;20859;-84
2022/11/04 03:08:55;;;;;;;6.10;1.90;;;10.60;99.90;;;;;;4954923;29;20983;-83
2022/11/04 03:11:23;;;;;;;3.77;1.20;;;10.70;99.90;;;;;;4954604;29;20437;-84
2022/11/04 03:14:03;;;;;;;5.70;2.20;;;10.70;99.90;;;;;;4954802;28;20459;-84
2022/11/04 03:16:55;;;;;;;3.30;1.40;;;10.70;99.90;;;;;;4953638;29;20840;-84
2022/11/04 03:19:43;;;;;;;3.83;2.30;;;10.70;99.90;;;;;;4954745;29;20401;-84
2022/11/04 03:22:16;;;;;;;2.00;1.60;;;10.70;99.90;;;;;;4954542;29;20482;-85
2022/11/04 03:24:44;;;;;;;6.20;2.43;;;10.70;99.90;;;;;;4954516;29;20516;-84
2022/11/04 03:27:26;;;;;;;3.37;1.43;;;10.70;99.90;;;;;;4954489;29;20780;-85
2022/11/04 03:29:58;;;;;;;3.43;1.60;;;10.70;99.90;;;;;;4954748;29;20433;-84
2022/11/04 03:32:46;;;;;;;4.20;1.47;;;10.60;99.90;;;;;;4954521;29;20469;-83
2022/11/04 03:35:15;;;;;;;5.63;2.57;;;10.60;99.90;;;;;;4954438;29;20784;-83
2022/11/04 03:37:41;;;;;;;4.87;1.80;;;10.60;99.90;;;;;;4954443;29;20914;-83
2022/11/04 03:40:08;;;;;;;3.97;2.17;;;10.60;99.90;;;;;;4952758;29;20424;-82
2022/11/04 03:42:46;;;;;;;2.80;1.67;;;10.60;99.90;;;;;;4954307;28;20828;-84
2022/11/04 03:45:12;;;;;;;4.00;2.00;;;10.70;99.90;;;;;;4952975;29;20793;-83
2022/11/04 03:47:39;;;;;;;4.30;2.60;;;10.70;99.90;;;;;;4953007;29;20435;-83
2022/11/04 03:50:16;;;;;;;4.07;1.90;;;10.60;99.90;;;;;;4954377;29;20520;-84
2022/11/04 03:52:42;;;;;;;3.70;2.90;;;10.60;99.90;;;;;;4954184;29;20415;-84
2022/11/04 03:55:10;;;;;;;4.90;2.27;;;10.60;99.90;;;;;;4953626;29;20534;-84
2022/11/04 03:57:36;;;;;;;4.23;2.10;;;10.60;99.90;;;;;;4953923;29;20219;-83
2022/11/04 04:00:11;;;;;;;3.70;1.77;;;10.60;99.90;;;;;;4952602;29;20427;-84
2022/11/04 04:02:54;;;;;;;2.90;1.87;;;10.60;99.90;;;;;;4953837;28;20228;-84
2022/11/04 04:05:22;;;;;;;4.40;1.70;;;10.60;99.90;;;;;;4953950;29;20833;-84
2022/11/04 04:08:00;;;;;;;5.40;2.30;;;10.60;99.90;;;;;;4953844;29;20426;-83
2022/11/04 04:10:38;;;;;;;4.33;2.40;;;10.60;99.90;;;;;;4953724;29;20749;-84
2022/11/04 04:13:19;;;;;;;4.60;2.93;;;10.60;99.90;;;;;;4953886;29;20409;-84
2022/11/04 04:16:12;;;;;;;4.47;1.93;;;10.60;99.90;;;;;;4952958;28;20470;-83
2022/11/04 04:18:52;;;;;;;5.47;3.20;;;10.60;99.90;;;;;;4953727;29;20913;-83
2022/11/04 04:21:21;;;;;;;5.13;3.37;;;10.50;99.90;;;;;;4953617;29;20948;-83
2022/11/04 04:29:22;;;;;;;8.13;3.20;;;10.50;99.90;;;;;;4954763;29;20433;-84
2022/11/04 04:31:48;;;;;;;5.07;2.67;;;10.60;99.90;;;;;;4954684;29;20546;-81
2022/11/04 04:34:25;;;;;;;3.70;2.70;;;10.60;99.90;;;;;;4954410;29;20453;-81
2022/11/04 04:36:59;;;;;;;4.20;2.53;;;10.60;99.90;;;;;;4954496;29;20431;-83
2022/11/04 04:45:33;;;;;;;5.23;2.60;;;10.60;99.90;;;;;;4954602;29;20435;-82
2022/11/04 04:47:58;;;;;;;8.23;2.60;;;10.60;99.90;;;;;;4954525;29;20459;-83
2022/11/04 04:50:29;;;;;;;4.80;2.60;;;10.60;99.90;;;;;;4954392;29;20944;-80
2022/11/04 04:52:57;;;;;;;5.07;2.53;;;10.70;99.90;;;;;;4954501;29;20269;-83
2022/11/04 04:55:23;;;;;;;5.07;1.80;;;10.70;99.90;;;;;;4954051;29;20413;-80
2022/11/04 04:57:49;;;;;;;3.77;1.70;;;10.70;99.90;;;;;;4954297;29;20474;-82
2022/11/04 05:00:19;;;;;;;6.07;2.70;;;10.60;99.90;;;;;;4954468;29;20189;-81
2022/11/04 05:02:45;;;;;;;2.17;0.93;;;10.60;99.90;;;;;;4954147;29;20252;-81
2022/11/04 05:05:12;;;;;;;2.80;1.97;;;10.60;99.90;;;;;;4954436;29;20423;-80
2022/11/04 05:07:38;;;;;;;3.73;2.17;;;10.60;99.90;;;;;;4954438;29;20168;-81
2022/11/04 05:10:04;;;;;;;2.93;1.83;;;10.70;99.90;;;;;;4953944;29;20441;-81
2022/11/04 05:13:24;;;;;;;3.40;1.90;;;10.70;99.90;;;;;;4954157;29;20503;-82
2022/11/04 05:15:16;;;;;;;3.77;1.70;;;10.70;99.90;;;;;;4954291;29;20978;-84
2022/11/04 05:17:41;;;;;;;2.23;1.50;;;10.70;99.90;;;;;;4954249;29;20417;-82
2022/11/04 05:20:08;;;;;;;3.87;1.67;;;10.60;99.90;;;;;;4954211;29;20428;-83
2022/11/04 05:22:33;;;;;;;2.67;1.13;;;10.60;99.90;;;;;;4954025;29;20231;-82
2022/11/04 05:24:59;;;;;;;3.60;1.50;;;10.70;99.90;;;;;;4953938;29;20483;-83
2022/11/04 05:27:24;;;;;;;3.20;1.70;;;10.60;99.90;;;;;;4956104;28;20182;-81
2022/11/04 05:29:50;;;;;;;3.67;1.80;;;10.70;99.90;;;;;;4957865;29;20653;-79
2022/11/04 05:32:15;;;;;;;3.90;1.90;;;10.70;99.90;;;;;;4965155;29;20181;-80
2022/11/04 05:34:44;;;;;;;4.80;2.00;;;10.60;99.90;;;;;;4964318;29;20188;-79
2022/11/04 05:37:09;;;;;;;5.03;1.70;;;10.70;99.90;;;;;;4959964;29;20177;-80
2022/11/04 05:39:34;;;;;;;4.73;1.50;;;10.70;99.90;;;;;;4962453;29;20412;-81
2022/11/04 05:42:00;;;;;;;2.90;1.20;;;10.80;99.90;;;;;;4961032;29;20210;-81
2022/11/04 05:44:26;;;;;;;4.80;1.67;;;10.70;99.90;;;;;;4957851;29;20177;-80
2022/11/04 05:46:51;;;;;;;6.83;2.30;;;10.70;99.90;;;;;;4957678;29;20178;-81
2022/11/04 05:49:17;;;;;;;1.70;0.60;;;10.70;99.90;;;;;;4957445;29;20207;-81
2022/11/04 05:51:42;;;;;;;2.43;1.20;;;10.60;99.90;;;;;;4957282;29;20169;-82
2022/11/04 05:54:08;;;;;;;5.77;1.37;;;10.70;99.90;;;;;;4957057;29;20200;-82
2022/11/04 05:56:33;;;;;;;5.17;0.93;;;10.70;99.90;;;;;;4956046;29;20180;-82
2022/11/04 05:58:59;;;;;;;1.40;0.70;;;10.70;99.90;;;;;;4957332;29;20182;-81
2022/11/04 06:01:39;;;;;;;4.03;1.20;;;10.60;99.90;;;;;;4957135;28;20317;-81
2022/11/04 06:04:05;;;;;;;1.63;0.93;;;10.70;99.90;;;;;;4956042;29;20669;-81
2022/11/04 06:06:33;;;;;;;2.73;1.30;;;10.70;99.90;;;;;;4957134;29;20413;-82
2022/11/04 06:09:01;;;;;;;1.60;0.90;;;10.70;99.90;;;;;;4955348;29;20491;-82
2022/11/04 06:11:28;;;;;;;5.60;1.03;;;10.60;99.90;;;;;;4957093;29;20412;-83
2022/11/04 06:13:54;;;;;;;2.13;1.10;;;10.60;99.90;;;;;;4956974;29;20422;-81
2022/11/04 06:16:23;;;;;;;3.00;1.17;;;10.60;99.90;;;;;;4956878;29;20429;-81
2022/11/04 06:18:50;;;;;;;3.77;1.10;;;10.60;99.90;;;;;;4956906;29;20421;-81
2022/11/04 06:21:17;;;;;;;1.87;0.50;;;10.50;99.90;;;;;;4955527;29;20945;-82
2022/11/04 06:23:43;;;;;;;1.37;0.83;;;10.50;99.90;;;;;;4956419;29;20476;-83
2022/11/04 06:26:10;;;;;;;2.70;1.00;;;10.50;99.90;;;;;;4956526;28;20448;-82
2022/11/04 06:28:36;;;;;;;2.70;0.90;;;10.50;99.90;;;;;;4956450;29;21004;-83
2022/11/04 06:31:03;;;;;;;1.30;0.60;;;10.60;99.90;;;;;;4955619;29;20557;-84
2022/11/04 06:33:29;;;;;;;2.10;0.80;;;10.60;99.90;;;;;;4955133;29;20176;-85
2022/11/04 06:35:59;;;;;;;2.90;0.97;;;10.60;99.90;;;;;;4956861;29;20528;-83
2022/11/04 06:38:25;;;;;;;1.97;0.40;;;10.60;99.90;;;;;;4955768;28;20417;-83
2022/11/04 06:40:51;;;;;;;2.40;0.90;;;10.60;99.90;;;;;;4956290;29;20494;-83
2022/11/04 06:43:16;;;;;;;1.83;0.70;;;10.60;99.90;;;;;;4955650;29;20482;-83
2022/11/04 06:45:42;;;;;;;3.00;0.60;;;10.60;99.90;;;;;;4955211;29;20255;-83
2022/11/04 06:48:07;;;;;;;2.70;0.90;;;10.60;99.90;;;;;;4955500;29;20208;-83
2022/11/04 06:50:33;;;;;;;1.90;0.90;;;10.60;99.90;;;;;;4956323;29;20538;-83
2022/11/04 06:52:58;;;;;;;1.70;0.60;;;10.60;99.90;;;;;;4956618;29;20183;-83
2022/11/04 06:55:24;;;;;;;3.13;0.90;;;10.60;99.90;;;;;;4956149;29;20202;-84
2022/11/04 06:57:50;;;;;;;4.47;0.90;;;10.60;99.90;;;;;;4956506;29;20199;-83
2022/11/04 07:00:15;;;;;;;2.93;0.60;;;10.60;99.90;;;;;;4956381;29;20169;-83
2022/11/04 07:02:41;;;;;;;2.00;0.60;;;10.60;99.90;;;;;;4956204;28;20237;-83
2022/11/04 07:05:07;;;;;;;1.80;1.10;;;10.60;99.90;;;;;;4956395;29;20182;-83
2022/11/04 07:07:33;;;;;;;3.60;0.97;;;10.70;99.90;;;;;;4956333;29;20173;-83
2022/11/04 07:09:58;;;;;;;2.03;0.97;;;10.70;99.90;;;;;;4955693;29;20523;-83
2022/11/04 07:12:24;;;;;;;2.33;1.47;;;10.70;99.90;;;;;;4956137;29;20172;-83
2022/11/04 07:14:50;;;;;;;1.97;0.67;;;10.70;99.90;;;;;;4956141;29;20182;-83
2022/11/04 07:17:16;;;;;;;1.50;0.67;;;10.70;99.90;;;;;;4956071;29;20656;-82
2022/11/04 07:19:41;;;;;;;4.47;0.93;;;10.80;99.90;;;;;;4956133;29;20415;-83
2022/11/04 07:22:07;;;;;;;4.00;0.93;;;10.70;99.90;;;;;;4955912;29;20597;-83
2022/11/04 07:24:35;;;;;;;2.23;1.10;;;10.70;99.90;;;;;;4955720;29;20251;-84
2022/11/04 07:27:01;;;;;;;2.90;1.37;;;10.70;99.90;;;;;;4955843;29;20190;-84
2022/11/04 07:29:27;;;;;;;2.40;1.37;;;10.60;99.90;;;;;;4955859;29;20474;-83
2022/11/04 07:31:53;;;;;;;1.33;0.63;;;10.60;99.90;;;;;;4955911;28;20266;-84
2022/11/04 07:34:19;;;;;;;2.40;1.57;;;10.60;99.90;;;;;;4955826;29;20432;-84
2022/11/04 07:36:44;;;;;;;3.87;1.50;;;10.60;99.90;;;;;;4955610;28;20552;-84
2022/11/04 07:39:09;;;;;;;3.23;1.97;;;10.70;99.90;;;;;;4954327;29;20613;-85
2022/11/04 07:41:35;;;;;;;1.80;1.13;;;10.70;99.90;;;;;;4955976;29;20189;-84
2022/11/04 07:44:04;;;;;;;4.57;1.40;;;10.90;99.90;;;;;;4955716;29;20183;-84
2022/11/04 07:46:33;;;;;;;2.20;1.57;;;11.00;99.90;;;;;;4955566;29;20174;-84
2022/11/04 07:48:58;;;;;;;2.43;1.00;;;11.00;99.90;;;;;;4955452;29;20425;-84
2022/11/04 07:51:25;;;;;;;3.33;1.23;;;11.00;99.90;;;;;;4955235;28;20798;-83
2022/11/04 07:53:51;;;;;;;3.70;1.93;;;10.90;99.90;;;;;;4955156;29;20176;-83
2022/11/04 07:56:17;;;;;;;3.13;1.70;;;10.90;99.90;;;;;;4955387;29;20416;-84
2022/11/04 07:58:44;;;;;;;4.73;2.23;;;10.80;99.90;;;;;;4955378;29;20530;-83
2022/11/04 08:01:14;;;;;;;4.20;2.00;;;10.90;99.90;;;;;;4955013;28;20428;-84
2022/11/04 08:03:40;;;;;;;4.57;2.07;;;10.90;99.90;;;;;;4955170;29;20491;-84
2022/11/04 08:06:08;;;;;;;3.20;2.43;;;10.90;99.90;;;;;;4955278;29;20420;-84
2022/11/04 08:08:34;;;;;;;3.03;2.00;;;10.90;99.90;;;;;;4954797;29;20177;-83
2022/11/04 08:11:04;;;;;;;3.63;2.40;;;10.90;99.90;;;;;;4955040;29;20416;-84
2022/11/04 08:13:31;;;;;;;3.47;2.30;;;10.90;99.90;;;;;;4954835;29;20440;-83
2022/11/04 08:16:01;;;;;;;4.03;3.17;;;10.90;99.90;;;;;;4954864;29;20429;-84
2022/11/04 08:18:26;;;;;;;4.33;2.70;;;10.80;99.90;;;;;;4955132;29;20433;-84
2022/11/04 08:20:52;;;;;;;3.57;2.40;;;10.80;99.90;;;;;;4955159;29;20447;-83
2022/11/04 08:23:18;;;;;;;4.17;2.10;;;10.70;99.90;;;;;;4954897;29;20215;-84
2022/11/04 08:25:44;;;;;;;2.60;1.73;;;10.70;99.90;;;;;;4955059;29;20236;-84
2022/11/04 08:28:16;;;;;;;4.07;2.30;;;10.80;99.90;;;;;;4955036;29;20910;-83
2022/11/04 08:30:56;;;;;;;2.80;2.03;;;10.80;99.90;;;;;;4955002;29;20424;-83
2022/11/04 08:33:23;;;;;;;3.00;2.23;;;10.80;99.90;;;;;;4954888;29;20428;-83
2022/11/04 08:35:49;;;;;;;3.90;2.40;;;10.80;99.90;;;;;;4954910;29;20424;-83
2022/11/04 08:38:14;;;;;;;2.97;2.07;;;10.90;99.90;;;;;;4954873;29;20953;-83
2022/11/04 08:40:43;;;;;;;4.10;1.90;;;10.90;99.90;;;;;;4954661;29;20180;-84
2022/11/04 08:43:09;;;;;;;3.50;1.43;;;10.90;99.90;;;;;;4954775;29;20247;-84
2022/11/04 08:45:44;;;;;;;2.23;1.80;;;10.90;99.90;;;;;;4953562;29;20467;-85
2022/11/04 08:48:09;;;;;;;2.97;1.67;;;10.90;99.90;;;;;;4954755;29;20208;-84
2022/11/04 08:50:35;;;;;;;3.47;1.87;;;11.00;99.90;;;;;;4954709;29;20427;-84
2022/11/04 08:53:01;;;;;;;3.40;1.60;;;11.10;99.90;;;;;;4954672;29;20660;-84
2022/11/04 08:55:31;;;;;;;4.47;2.00;;;11.20;99.90;;;;;;4954347;29;20179;-84
2022/11/04 08:57:57;;;;;;;2.50;1.57;;;11.40;99.90;;;;;;4953386;29;20436;-84
2022/11/04 09:00:23;;;;;;;2.03;1.30;;;11.50;99.90;;;;;;4954509;29;20490;-85
2022/11/04 09:02:48;;;;;;;2.93;1.83;;;11.50;99.90;;;;;;4957079;28;20516;-84
2022/11/04 09:05:14;;;;;;;1.90;1.37;;;11.60;99.90;;;;;;4958500;29;20201;-86
2022/11/04 09:07:41;;;;;;;2.17;1.47;;;11.50;99.90;;;;;;4958384;29;20170;-87
2022/11/04 09:10:08;;;;;;;4.50;1.77;;;11.50;99.90;;;;;;4957866;29;20166;-85
2022/11/04 09:12:33;;;;;;;2.80;2.37;;;11.50;99.90;;;;;;4958078;29;20420;-85
2022/11/04 09:14:59;;;;;;;2.23;1.17;;;11.40;99.90;;;;;;4958322;29;20431;-85
2022/11/04 09:17:33;;;;;;;2.70;1.20;;;11.50;99.90;;;;;;4958639;29;20565;-85
2022/11/04 09:19:59;;;;;;;2.13;1.80;;;11.70;99.90;;;;;;4958536;29;20184;-88
2022/11/04 09:22:24;;;;;;;3.30;2.33;;;12.10;99.90;;;;;;4958529;29;20477;-88
2022/11/04 09:24:50;;;;;;;3.37;1.40;;;13.00;84.60;;;;;;4958301;29;20177;-87
2022/11/04 09:27:15;;;;;;;1.67;0.70;;;14.40;1.00;;;;;;4958506;29;20261;-88
2022/11/04 09:29:41;;;;;;;2.30;1.17;;;15.60;99.90;;;;;;4958492;29;20193;-88
2022/11/04 09:32:07;;;;;;;1.73;0.90;;;14.70;1.00;;;;;;4952058;28;20189;-86
2022/11/04 09:34:33;;;;;;;1.90;1.10;;;13.80;99.90;;;;;;4965087;28;20703;-88
2022/11/04 09:36:58;;;;;;;1.97;0.87;;;13.40;1.00;;;;;;4957969;29;20431;-87
2022/11/04 09:39:25;;;;;;;2.73;1.13;;;13.60;99.90;;;;;;4957624;29;20589;-85
2022/11/04 09:42:02;;;;;;;1.97;0.93;;;13.20;1.00;;;;;;4957747;29;20201;-86
2022/11/04 09:44:54;;;;;;;2.40;0.97;;;13.70;99.90;;;;;;4957425;29;20429;-85
2022/11/04 09:47:21;;;;;;;2.30;0.80;;;14.30;99.90;;;;;;4957609;29;20415;-83
2022/11/04 09:49:49;;;;;;;2.30;1.03;;;14.80;99.90;;;;;;4957435;29;20434;-85
2022/11/04 09:52:23;;;;;;;1.33;0.57;;;15.30;1.00;;;;;;4957443;29;20807;-85
2022/11/04 09:55:11;;;;;;;1.20;0.60;;;14.80;1.00;;;;;;4957232;29;20408;-84
2022/11/04 09:57:37;;;;;;;2.23;1.10;;;14.20;99.90;;;;;;4957395;28;20421;-84
2022/11/04 10:00:04;;;;;;;1.07;0.43;;;14.00;1.00;;;;;;4957323;29;20474;-83
2022/11/04 10:03:07;;;;;;;2.03;0.70;;;14.60;99.90;;;;;;4956955;29;20580;-83
2022/11/04 10:06:08;;;;;;;1.43;0.63;;;14.80;1.00;;;;;;4957309;28;20485;-84
2022/11/04 10:08:55;;;;;;;1.80;0.87;;;14.20;99.90;;;;;;4956744;29;20416;-85
2022/11/04 10:11:29;;;;;;;1.70;0.30;;;13.70;88.50;;;;;;4957239;29;20455;-85
2022/11/04 10:14:18;;;;;;;1.90;0.67;;;13.30;1.00;;;;;;4955875;28;20451;-82
2022/11/04 10:17:11;;;;;;;1.90;0.40;;;13.00;1.00;;;;;;4957234;29;20824;-83
2022/11/04 10:20:02;;;;;;;1.07;0.73;;;12.70;1.00;;;;;;4957013;29;20422;-83
2022/11/04 10:22:32;;;;;;;1.90;0.90;;;12.50;1.00;;;;;;4956466;29;20475;-83
2022/11/04 10:25:02;;;;;;;3.90;0.97;;;12.50;1.00;;;;;;4956658;29;20807;-84
2022/11/04 10:27:32;;;;;;;3.60;1.03;;;12.40;1.00;;;;;;4957102;29;20880;-85
2022/11/04 10:30:12;;;;;;;1.67;0.67;;;12.40;1.00;;;;;;4956978;29;20408;-84
2022/11/04 10:33:09;;;;;;;2.33;1.23;;;12.60;1.00;;;;;;4956794;29;20536;-84
2022/11/04 10:35:46;;;;;;;2.70;1.20;;;12.60;1.00;;;;;;4956789;29;20534;-84
2022/11/04 10:38:31;;;;;;;1.40;0.97;;;12.70;1.00;;;;;;4956242;29;20416;-84
2022/11/04 10:40:57;;;;;;;1.43;0.70;;;12.60;1.00;;;;;;4955494;29;20436;-84
2022/11/04 10:43:39;;;;;;;1.70;0.93;;;12.60;1.00;;;;;;4956560;29;20831;-85
2022/11/04 10:46:17;;;;;;;1.90;0.63;;;12.80;1.00;;;;;;4956623;29;20173;-84
2022/11/04 10:49:11;;;;;;;1.27;0.53;;;13.00;1.00;;;;;;4956336;29;20447;-84
2022/11/04 10:51:37;;;;;;;1.47;0.80;;;13.00;1.00;;;;;;4957011;28;20454;-84
2022/11/04 10:54:07;;;;;;;2.43;0.83;;;12.90;1.00;;;;;;4956239;29;20421;-84
2022/11/04 10:56:46;;;;;;;2.60;1.00;;;13.00;1.00;;;;;;4956327;29;20175;-83
2022/11/04 10:59:26;;;;;;;1.93;1.03;;;13.70;1.00;;;;;;4956394;28;20427;-86
2022/11/04 11:01:54;;;;;;;1.70;1.07;;;13.60;99.90;;;;;;4956337;29;20479;-85
2022/11/04 11:04:29;;;;;;;1.40;0.67;;;13.40;99.90;;;;;;4957618;29;20504;-88
2022/11/04 11:06:56;;;;;;;3.50;1.73;;;13.10;99.90;;;;;;4958169;29;20417;-92
2022/11/04 11:09:30;;;;;;;3.30;1.37;;;13.00;1.00;;;;;;4961396;29;20415;-87
2022/11/04 11:12:17;;;;;;;1.60;1.30;;;13.10;1.00;;;;;;4959776;29;20442;-82
2022/11/04 11:14:42;;;;;;;4.17;0.87;;;13.30;1.00;;;;;;4965157;29;20558;-84
2022/11/04 11:17:14;;;;;;;2.30;1.47;;;13.40;1.00;;;;;;4964864;29;20938;-85
2022/11/04 11:20:06;;;;;;;2.00;1.03;;;13.40;1.00;;;;;;4955831;29;20179;-86
2022/11/04 11:22:38;;;;;;;1.70;0.93;;;13.80;83.90;;;;;;4955369;29;21046;-89
2022/11/04 11:25:44;;;;;;;1.50;0.97;;;13.70;1.00;;;;;;4954665;28;20413;-86
2022/11/04 11:28:19;;;;;;;3.90;0.97;;;13.80;99.90;;;;;;4955523;28;20426;-89
2022/11/04 11:30:45;;;;;;;2.17;0.90;;;14.20;1.00;;;;;;4955633;29;20518;-86
2022/11/04 11:33:31;;;;;;;1.67;0.60;;;14.20;99.90;;;;;;4954226;28;20460;-86
2022/11/04 11:36:11;;;;;;;1.20;0.40;;;14.20;99.90;;;;;;4986031;28;20426;-89
2022/11/04 11:38:50;;;;;;;1.20;0.83;;;14.40;1.00;;;;;;4954593;28;20942;-87
2022/11/04 11:41:20;;;;;;;2.73;0.87;;;14.50;94.80;;;;;;4954711;29;20427;-87
2022/11/04 11:43:50;;;;;;;0.80;0.50;;;14.30;1.00;;;;;;4954390;28;20562;-88
2022/11/04 11:46:22;;;;;;;1.83;0.50;;;14.10;44.10;;;;;;4954445;29;20426;-88
2022/11/04 11:48:59;;;;;;;1.33;0.50;;;14.20;1.00;;;;;;4954811;29;20454;-87
2022/11/04 11:51:38;;;;;;;1.17;0.60;;;14.30;1.00;;;;;;4955379;28;20406;-88
2022/11/04 11:54:18;;;;;;;1.93;0.73;;;14.40;38.30;;;;;;4961189;28;20961;-88
2022/11/04 11:56:49;;;;;;;1.10;0.40;;;14.50;99.90;;;;;;4974695;28;20444;-86
2022/11/04 11:59:39;;;;;;;1.20;0.33;;;14.70;1.00;;;;;;4954381;28;20457;-85
2022/11/04 12:02:33;;;;;;;1.23;0.30;;;14.60;58.30;;;;;;4954784;28;20536;-86
2022/11/04 12:05:00;;;;;;;3.47;0.43;;;14.60;1.00;;;;;;4955218;29;20423;-87
2022/11/04 12:07:42;;;;;;;1.20;0.30;;;14.60;99.90;;;;;;4955090;29;20921;-87
2022/11/04 12:10:21;;;;;;;0.60;0.27;;;14.40;1.00;;;;;;4955077;29;20890;-87
2022/11/04 12:12:54;;;;;;;0.70;0.30;;;14.30;1.00;;;;;;4955082;28;20415;-82
2022/11/04 12:15:47;;;;;;;2.60;0.43;;;14.20;99.90;;;;;;4954963;29;20424;-84
2022/11/04 12:18:42;;;;;;;0.77;0.20;;;14.40;1.00;;;;;;4954807;29;20868;-83
2022/11/04 12:21:30;;;;;;;3.60;0.40;;;14.50;1.00;;;;;;4954791;28;20426;-83
2022/11/04 12:24:26;;;;;;;1.17;0.37;;;14.50;1.00;;;;;;4954414;29;20480;-82
2022/11/04 12:27:11;;;;;;;1.30;0.20;;;14.50;99.90;;;;;;4954844;29;20482;-83
2022/11/04 12:29:57;;;;;;;1.33;0.20;;;14.10;94.50;;;;;;4954841;28;20517;-83
2022/11/04 12:32:40;;;;;;;1.37;0.20;;;14.00;99.90;;;;;;4954795;29;20506;-82
2022/11/04 12:35:17;;;;;;;1.03;0.30;;;14.10;1.00;;;;;;4954700;29;20415;-81
2022/11/04 12:37:58;;;;;;;3.03;0.20;;;14.10;1.00;;;;;;4953470;29;20437;-82
2022/11/04 12:40:38;;;;;;;2.87;0.40;;;14.00;99.90;;;;;;4954587;29;21157;-83
2022/11/04 12:43:43;;;;;;;0.70;0.20;;;14.00;1.00;;;;;;4954307;29;20602;-82
2022/11/04 12:46:25;;;;;;;0.83;0.20;;;13.80;99.90;;;;;;4953508;29;20432;-83
2022/11/04 12:49:06;;;;;;;2.93;0.20;;;13.80;99.90;;;;;;4954270;29;20446;-81
2022/11/04 12:51:53;;;;;;;1.10;0.20;;;13.90;99.90;;;;;;4954700;29;20499;-82
2022/11/04 12:54:38;;;;;;;1.60;0.30;;;13.90;99.90;;;;;;4954379;28;20488;-82
2022/11/04 12:57:30;;;;;;;2.50;0.30;;;13.90;1.00;;;;;;4954697;29;20447;-82
2022/11/04 13:00:11;;;;;;;2.60;0.30;;;14.00;99.90;;;;;;4954563;29;20818;-81
2022/11/04 13:02:44;;;;;;;1.23;0.20;;;14.00;99.90;;;;;;4954097;29;20479;-80
2022/11/04 13:05:35;;;;;;;0.40;0.10;;;14.00;99.90;;;;;;4954542;29;20443;-82
2022/11/04 13:08:06;;;;;;;0.50;0.20;;;13.90;99.90;;;;;;4958947;28;20415;-82
2022/11/04 13:10:38;;;;;;;1.37;0.20;;;13.80;99.90;;;;;;4964387;29;20425;-83
2022/11/04 13:13:06;;;;;;;2.90;0.20;;;13.70;99.90;;;;;;4958657;28;20959;-83
2022/11/04 13:15:51;;;;;;;2.10;0.20;;;13.60;1.00;;;;;;4953429;29;20430;-84
2022/11/04 13:18:19;;;;;;;1.73;0.20;;;13.40;1.00;;;;;;4954754;28;20416;-86
2022/11/04 13:21:01;;;;;;;0.93;0.20;;;13.40;1.00;;;;;;4955105;29;20423;-82
2022/11/04 13:24:03;;;;;;;1.27;0.20;;;13.30;1.00;;;;;;4957030;29;20472;-85
2022/11/04 13:26:29;;;;;;;2.20;0.20;;;13.30;1.00;;;;;;4950214;28;20436;-84
2022/11/04 13:29:14;;;;;;;4.00;1.03;;;13.30;1.00;;;;;;4968670;29;20486;-85
2022/11/04 13:32:04;;;;;;;1.40;0.20;;;13.40;1.00;;;;;;4967092;28;20395;-85
2022/11/04 13:34:47;;;;;;;2.23;0.27;;;13.30;1.00;;;;;;4967393;29;20443;-82
2022/11/04 13:37:27;;;;;;;4.33;0.63;;;13.30;1.00;;;;;;4964459;29;20422;-83
2022/11/04 13:40:05;;;;;;;0.90;0.30;;;13.30;1.00;;;;;;4972936;28;20429;-83
2022/11/04 13:43:36;;;;;;;0.47;0.10;;;13.20;1.00;;;;;;4964021;29;20460;-84